Time;durP1;ratioP1;P1;durP2;ratioP2;P2;SDS_P1;SDS_P2;PMS_P1;PMS_P2;Temp;Humidity;BMP_temperature;BMP_pressure;BME280_temperature;BME280_humidity;BME280_pressure;Samples;Min_cycle;Max_cycle;Signal;HPM_P1;HPM_P2
2020/12/07 00:00:22;;;;;;;14.53;8.30;;;;;;;19.60;52.24;99309.97;2267010;78;50833;-76
2020/12/07 00:03:24;;;;;;;14.15;8.63;;;;;;;19.60;52.20;99309.97;2266844;78;50383;-77
2020/12/07 00:06:27;;;;;;;14.10;8.08;;;;;;;19.59;52.13;99312.33;2267005;78;50801;-77
2020/12/07 00:09:29;;;;;;;15.98;8.48;;;;;;;19.56;52.18;99304.20;2266915;78;51513;-77
2020/12/07 00:12:31;;;;;;;10.93;7.95;;;;;;;19.56;52.13;99304.20;2266694;78;51530;-78
2020/12/07 00:15:33;;;;;;;16.17;8.15;;;;;;;19.52;52.12;99296.32;2266967;77;50471;-77
2020/12/07 00:18:36;;;;;;;13.85;8.90;;;;;;;19.52;52.16;99311.08;2266872;78;51545;-77
2020/12/07 00:21:40;;;;;;;14.30;7.97;;;;;;;19.52;52.13;99312.91;2266789;78;50430;-79
2020/12/07 00:24:42;;;;;;;15.95;8.05;;;;;;;19.53;52.05;99315.91;2267133;78;51571;-78
2020/12/07 00:27:44;;;;;;;13.72;7.92;;;;;;;19.52;52.00;99308.39;2267386;78;51570;-77
2020/12/07 00:30:47;;;;;;;12.63;8.65;;;;;;;19.51;51.97;99292.50;2267366;78;50311;-77
2020/12/07 00:33:49;;;;;;;13.45;8.50;;;;;;;19.50;51.96;99301.08;2267051;78;51569;-78
2020/12/07 00:36:51;;;;;;;13.03;8.30;;;;;;;19.50;51.97;99298.92;2267589;78;50296;-78
2020/12/07 00:39:53;;;;;;;14.07;8.05;;;;;;;19.49;51.94;99281.98;2267674;78;50570;-78
2020/12/07 00:42:55;;;;;;;13.32;8.30;;;;;;;19.49;51.92;99290.56;2267427;78;50717;-78
2020/12/07 00:46:02;;;;;;;11.50;7.87;;;;;;;19.48;51.88;99283.56;2267517;78;51505;-78
2020/12/07 00:49:02;;;;;;;12.88;8.28;;;;;;;19.48;51.86;99274.17;2266783;78;22213;-78
2020/12/07 00:52:04;;;;;;;13.15;8.28;;;;;;;19.46;51.91;99278.41;2284465;77;50443;-78
2020/12/07 00:55:06;;;;;;;14.45;8.03;;;;;;;19.45;51.88;99286.70;2300263;77;51629;-78
2020/12/07 00:58:09;;;;;;;14.10;7.70;;;;;;;19.45;51.85;99298.77;2300408;77;50757;-79
2020/12/07 01:01:11;;;;;;;12.90;8.05;;;;;;;19.42;51.88;99286.63;2300573;77;51632;-78
2020/12/07 01:04:13;;;;;;;12.20;8.05;;;;;;;19.43;51.89;99267.31;2300462;77;51499;-78
2020/12/07 01:07:15;;;;;;;12.63;8.45;;;;;;;19.42;51.89;99270.53;2301013;77;51514;-78
2020/12/07 01:10:17;;;;;;;14.85;8.83;;;;;;;19.43;51.81;99284.75;2300974;77;50469;-78
2020/12/07 01:13:20;;;;;;;13.70;7.97;;;;;;;19.41;51.80;99277.44;2300947;76;50433;-80
2020/12/07 01:16:23;;;;;;;11.50;7.75;;;;;;;19.38;51.90;99277.89;2331598;76;50687;-78
2020/12/07 01:19:26;;;;;;;12.65;8.20;;;;;;;19.39;51.80;99267.45;2339779;74;50464;-78
2020/12/07 01:22:28;;;;;;;12.47;8.38;;;;;;;19.39;52.05;99267.45;2340191;76;50761;-77
2020/12/07 01:25:30;;;;;;;12.15;8.68;;;;;;;19.35;52.25;99261.19;2340486;74;51592;-77
2020/12/07 01:28:32;;;;;;;13.22;8.15;;;;;;;19.35;52.20;99259.04;2340492;76;51612;-78
2020/12/07 01:31:35;;;;;;;12.50;7.97;;;;;;;19.35;52.15;99250.46;2340534;74;50270;-78
2020/12/07 01:34:37;;;;;;;11.43;7.62;;;;;;;19.35;52.10;99241.08;2340521;76;50376;-77
2020/12/07 01:37:39;;;;;;;16.10;7.97;;;;;;;19.35;52.15;99241.08;2340599;74;50756;-78
2020/12/07 01:40:41;;;;;;;11.60;8.43;;;;;;;19.35;52.14;99229.01;2340443;76;50246;-78
2020/12/07 01:43:44;;;;;;;11.65;7.67;;;;;;;19.34;52.21;99240.79;2340083;75;50247;-78
2020/12/07 01:46:46;;;;;;;14.23;8.15;;;;;;;19.35;52.14;99247.78;2340141;75;50772;-78
2020/12/07 01:49:50;;;;;;;13.13;8.88;;;;;;;19.34;52.06;99240.79;2338926;75;49892;-78
2020/12/07 01:52:52;;;;;;;12.90;8.13;;;;;;;19.34;52.16;99250.17;2380476;74;50747;-78
2020/12/07 01:55:54;;;;;;;14.95;7.78;;;;;;;19.34;52.10;99231.90;2381533;74;50398;-78
2020/12/07 01:59:00;;;;;;;14.30;8.70;;;;;;;19.32;52.05;99234.82;2381564;74;50381;-78
2020/12/07 02:02:02;;;;;;;12.53;8.23;;;;;;;19.31;52.10;99231.02;2381572;74;51598;-78
2020/12/07 02:05:04;;;;;;;11.48;8.08;;;;;;;19.29;52.10;99236.61;2381563;74;51535;-78
2020/12/07 02:08:18;;;;;;;12.68;8.43;;;;;;;19.31;52.04;99229.67;2381504;74;51560;-78
2020/12/07 02:11:20;;;;;;;10.78;8.20;;;;;;;19.29;52.00;99217.84;2380416;74;51567;-77
2020/12/07 02:14:22;;;;;;;13.40;8.83;;;;;;;19.28;52.01;99224.75;2380471;74;50765;-78
2020/12/07 02:17:24;;;;;;;13.22;8.30;;;;;;;19.27;51.92;99218.58;2374681;75;50036;-78
2020/12/07 02:20:27;;;;;;;12.60;8.15;;;;;;;19.28;51.91;99215.37;2374815;75;50743;-78
2020/12/07 02:23:29;;;;;;;13.28;8.48;;;;;;;19.27;51.93;99213.22;2374948;75;50287;-78
2020/12/07 02:26:31;;;;;;;12.23;7.75;;;;;;;19.26;51.91;99210.22;2374479;75;50734;-79
2020/12/07 02:29:33;;;;;;;12.20;8.18;;;;;;;19.26;51.93;99208.87;2374860;75;51611;-78
2020/12/07 02:32:35;;;;;;;11.63;7.65;;;;;;;19.25;51.99;99210.45;2374721;75;51501;-78
2020/12/07 02:35:38;;;;;;;13.78;8.43;;;;;;;19.23;51.94;99209.33;2374860;73;52728;-78
2020/12/07 02:38:40;;;;;;;11.55;8.15;;;;;;;19.23;51.90;99222.73;2374946;73;50313;-78
2020/12/07 02:41:43;;;;;;;13.50;8.40;;;;;;;19.23;51.84;99207.98;2374881;75;50430;-77
2020/12/07 02:44:45;;;;;;;12.82;8.03;;;;;;;19.22;51.91;99202.86;2366983;75;50760;-78
2020/12/07 02:47:47;;;;;;;12.28;7.75;;;;;;;19.21;52.01;99207.38;2341271;75;50282;-78
2020/12/07 02:50:49;;;;;;;12.07;8.05;;;;;;;19.20;51.87;99203.07;2341225;75;50357;-78
2020/12/07 02:53:51;;;;;;;14.25;8.33;;;;;;;19.18;51.96;99193.08;2341015;76;50348;-78
2020/12/07 02:56:54;;;;;;;11.35;8.08;;;;;;;19.20;51.85;99200.39;2341172;76;50749;-78
2020/12/07 02:59:56;;;;;;;12.03;8.10;;;;;;;19.17;51.99;99204.86;2341221;76;50670;-78
2020/12/07 03:02:58;;;;;;;12.43;7.97;;;;;;;19.18;51.88;99201.13;2340252;76;51616;-77
2020/12/07 03:06:00;;;;;;;11.78;8.03;;;;;;;19.18;51.89;99197.11;2340446;76;51506;-78
2020/12/07 03:09:02;;;;;;;12.90;8.30;;;;;;;19.17;51.79;99192.80;2340236;76;50350;-78
2020/12/07 03:12:05;;;;;;;12.25;8.25;;;;;;;19.17;51.81;99199.50;2340143;76;50310;-77
2020/12/07 03:15:07;;;;;;;16.20;8.33;;;;;;;19.14;51.81;99199.42;2332999;76;50345;-77
2020/12/07 03:18:09;;;;;;;12.85;7.97;;;;;;;19.14;51.84;99200.77;2321136;75;50352;-77
2020/12/07 03:21:11;;;;;;;11.80;8.03;;;;;;;19.14;51.78;99194.59;2321487;75;50408;-77
2020/12/07 03:24:13;;;;;;;12.65;8.35;;;;;;;19.13;51.75;99207.67;2321122;76;50801;-77
2020/12/07 03:27:16;;;;;;;12.73;8.03;;;;;;;19.13;51.78;99202.31;2321260;76;52271;-77
2020/12/07 03:30:18;;;;;;;14.53;8.25;;;;;;;19.14;51.74;99210.67;2323231;76;51477;-77
2020/12/07 03:33:20;;;;;;;14.45;8.13;;;;;;;19.12;51.69;99209.55;2323937;76;51754;-77
2020/12/07 03:36:22;;;;;;;14.68;8.23;;;;;;;19.10;51.68;99208.94;2322215;75;50755;-77
2020/12/07 03:39:24;;;;;;;10.20;8.18;;;;;;;19.11;51.71;99209.75;2321332;76;50291;-78
2020/12/07 03:42:27;;;;;;;13.78;8.23;;;;;;;19.10;51.72;99210.80;2321207;76;50881;-77
2020/12/07 03:45:29;;;;;;;11.25;7.97;;;;;;;19.09;51.75;99201.95;2330329;76;51519;-77
2020/12/07 03:48:31;;;;;;;11.33;7.97;;;;;;;19.08;51.69;99202.16;2340186;76;51498;-77
2020/12/07 03:51:33;;;;;;;13.18;7.72;;;;;;;19.06;51.68;99201.05;2339538;75;50725;-77
2020/12/07 03:54:35;;;;;;;10.50;7.60;;;;;;;19.07;51.70;99201.88;2340144;76;50206;-77
2020/12/07 03:57:38;;;;;;;11.65;8.03;;;;;;;19.07;51.77;99201.88;2340197;76;50342;-78
2020/12/07 04:00:40;;;;;;;12.07;8.50;;;;;;;19.06;51.72;99194.85;2340285;76;50161;-77
2020/12/07 04:03:45;;;;;;;10.35;7.53;;;;;;;19.06;51.63;99186.81;2340105;75;49979;-78
2020/12/07 04:06:47;;;;;;;12.58;7.95;;;;;;;19.06;51.56;99185.47;2340667;75;22279;-78
2020/12/07 04:09:49;;;;;;;10.68;7.65;;;;;;;19.05;51.61;99201.27;2340386;76;49868;-78
2020/12/07 04:12:52;;;;;;;10.65;7.50;;;;;;;19.04;51.56;99200.45;2340288;76;50853;-78
2020/12/07 04:15:54;;;;;;;12.15;8.03;;;;;;;19.04;51.64;99202.31;2340172;75;50480;-78
2020/12/07 04:18:56;;;;;;;10.85;8.18;;;;;;;19.03;51.63;99195.30;2340132;75;51619;-78
2020/12/07 04:21:58;;;;;;;12.80;8.25;;;;;;;19.02;51.62;99194.48;2339884;76;51428;-77
2020/12/07 04:25:00;;;;;;;12.37;7.65;;;;;;;19.02;51.62;99197.69;2340237;76;52221;-77
2020/12/07 04:28:03;;;;;;;13.40;8.35;;;;;;;19.00;51.64;99193.87;2340357;76;50329;-77
2020/12/07 04:31:05;;;;;;;9.95;7.58;;;;;;;19.00;51.66;99199.24;2340623;76;51615;-78
2020/12/07 04:34:07;;;;;;;12.63;8.63;;;;;;;18.99;51.57;99192.78;2340490;76;50361;-77
2020/12/07 04:37:09;;;;;;;12.60;8.08;;;;;;;18.99;51.60;99191.44;2340894;76;50376;-78
2020/12/07 04:40:11;;;;;;;10.93;7.75;;;;;;;19.00;51.52;99189.86;2340412;75;50807;-78
2020/12/07 04:43:14;;;;;;;11.73;8.28;;;;;;;18.99;51.44;99178.85;2340397;76;50728;-78
2020/12/07 04:46:16;;;;;;;13.38;8.43;;;;;;;19.00;51.43;99175.64;2340765;76;51352;-78
2020/12/07 04:49:19;;;;;;;10.65;7.90;;;;;;;18.99;51.46;99160.61;2340713;75;50634;-78
2020/12/07 04:52:21;;;;;;;10.88;8.03;;;;;;;18.98;51.47;99167.00;2340430;76;51643;-78
2020/12/07 04:55:23;;;;;;;12.25;8.48;;;;;;;18.96;51.54;99170.41;2340458;76;50668;-78
2020/12/07 04:58:26;;;;;;;12.88;8.13;;;;;;;18.95;51.45;99174.96;2340302;75;50359;-78
2020/12/07 05:01:28;;;;;;;11.45;7.72;;;;;;;18.97;51.44;99184.13;2340476;76;51548;-79
2020/12/07 05:04:31;;;;;;;12.05;7.75;;;;;;;18.95;51.50;99191.57;2340878;76;51405;-78
2020/12/07 05:07:35;;;;;;;9.78;7.08;;;;;;;18.95;51.46;99183.53;2340738;75;51479;-78
2020/12/07 05:10:41;;;;;;;12.55;7.80;;;;;;;18.93;51.47;99191.77;2339790;75;51508;-78
2020/12/07 05:13:48;;;;;;;10.28;7.92;;;;;;;18.93;51.40;99181.91;2340893;75;22367;-79
2020/12/07 05:16:49;;;;;;;11.25;7.62;;;;;;;18.91;51.47;99208.09;2378512;74;22313;-78
2020/12/07 05:19:51;;;;;;;9.25;7.70;;;;;;;18.92;51.42;99219.11;2381589;74;50285;-78
2020/12/07 05:22:54;;;;;;;11.00;7.70;;;;;;;18.92;51.35;99220.45;2381551;74;50453;-78
2020/12/07 05:25:56;;;;;;;11.45;7.87;;;;;;;18.95;51.29;99209.80;2381432;74;50158;-78
2020/12/07 05:29:05;;;;;;;13.03;8.20;;;;;;;18.95;51.27;99211.67;2381495;74;50712;-77
2020/12/07 05:32:02;;;;;;;11.53;7.70;;;;;;;18.93;51.27;99223.45;2380857;74;22861;-77
2020/12/07 05:35:06;;;;;;;13.58;8.63;;;;;;;18.95;51.22;99217.03;2381469;74;51351;-78
2020/12/07 05:38:08;;;;;;;11.48;7.97;;;;;;;18.96;51.30;99218.66;2381864;74;50331;-78
2020/12/07 05:41:11;;;;;;;9.60;7.25;;;;;;;18.95;51.34;99232.59;2381914;74;50358;-78
2020/12/07 05:44:13;;;;;;;12.43;8.45;;;;;;;18.97;51.42;99226.50;2382035;74;50750;-77
2020/12/07 05:47:18;;;;;;;10.38;7.05;;;;;;;18.97;51.24;99225.16;2382065;74;50737;-77
2020/12/07 05:50:21;;;;;;;13.32;8.33;;;;;;;18.99;51.04;99235.67;2382302;74;50412;-77
2020/12/07 05:53:25;;;;;;;15.08;7.83;;;;;;;19.02;50.91;99228.52;2382298;74;50306;-77
2020/12/07 05:56:29;;;;;;;13.83;7.53;;;;;;;19.06;53.06;99222.50;2383134;74;50091;-78
2020/12/07 05:59:31;;;;;;;17.75;8.33;;;;;;;19.10;53.62;99224.21;2382370;74;50304;-78
2020/12/07 06:02:33;;;;;;;15.63;8.15;;;;;;;19.18;54.07;99231.96;2382155;74;50627;-77
2020/12/07 06:05:36;;;;;;;15.18;7.58;;;;;;;19.32;52.57;99228.12;2381928;74;51582;-76
2020/12/07 06:08:38;;;;;;;13.25;7.83;;;;;;;19.43;52.17;99235.12;2381488;74;51587;-76
2020/12/07 06:11:46;;;;;;;15.75;7.47;;;;;;;19.48;52.07;99232.06;2368329;74;51658;-76
2020/12/07 06:14:49;;;;;;;11.55;7.17;;;;;;;19.46;53.90;99233.33;2367608;74;51512;-76
2020/12/07 06:17:51;;;;;;;12.80;7.55;;;;;;;19.58;52.26;99234.23;2380782;74;51426;-77
2020/12/07 06:20:55;;;;;;;14.18;7.55;;;;;;;19.62;52.25;99240.77;2361610;74;50438;-76
2020/12/07 06:23:58;;;;;;;12.88;6.90;;;;;;;19.70;52.15;99259.28;2363616;74;51611;-76
2020/12/07 06:27:05;;;;;;;10.68;6.58;;;;;;;19.75;52.02;99266.14;2350851;74;50746;-77
2020/12/07 06:30:07;;;;;;;18.02;7.37;;;;;;;19.81;51.97;99277.87;2340075;76;50833;-76
2020/12/07 06:33:10;;;;;;;11.65;6.55;;;;;;;19.86;51.83;99287.91;2341538;75;51603;-76
2020/12/07 06:36:32;;;;;;;15.98;7.10;;;;;;;19.88;51.79;99273.75;2357491;75;50692;-76
2020/12/07 06:39:45;;;;;;;17.10;7.83;;;;;;;19.84;51.81;99274.73;2327356;74;50244;-77
2020/12/07 06:42:48;;;;;;;14.70;7.40;;;;;;;19.91;51.68;99288.05;2360631;73;51544;-77
2020/12/07 06:45:50;;;;;;;20.40;7.70;;;;;;;19.96;51.43;99279.65;2362580;74;51539;-77
2020/12/07 06:48:55;;;;;;;16.00;7.28;;;;;;;19.99;51.37;99294.48;2370127;74;50372;-77
2020/12/07 06:52:03;;;;;;;18.35;7.92;;;;;;;20.06;51.15;99298.41;2353302;75;51666;-77
2020/12/07 06:55:12;;;;;;;18.23;7.35;;;;;;;20.11;50.99;99304.74;2361147;74;22571;-77
2020/12/07 06:58:35;;;;;;;16.20;6.70;;;;;;;20.11;50.97;99300.72;2386868;73;51374;-76
2020/12/07 07:01:37;;;;;;;24.63;7.30;;;;;;;20.14;50.96;99292.23;2368004;74;51625;-77
2020/12/07 07:04:39;;;;;;;14.50;7.53;;;;;;;20.21;51.19;99311.74;2365370;74;51424;-77
2020/12/07 07:07:41;;;;;;;17.42;7.62;;;;;;;20.21;51.27;99311.74;2387218;74;50747;-78
2020/12/07 07:10:44;;;;;;;15.00;7.33;;;;;;;20.26;51.13;99308.38;2383680;74;51498;-77
2020/12/07 07:13:47;;;;;;;14.73;7.17;;;;;;;20.29;51.08;99313.30;2360047;75;50209;-78
2020/12/07 07:16:50;;;;;;;18.25;7.28;;;;;;;20.30;51.10;99311.45;2359667;74;51517;-77
2020/12/07 07:19:52;;;;;;;17.87;7.58;;;;;;;20.39;50.88;99314.11;2329864;75;50408;-77
2020/12/07 07:22:55;;;;;;;14.60;7.50;;;;;;;20.44;50.76;99319.62;2359740;75;50421;-78
2020/12/07 07:26:16;;;;;;;18.95;7.47;;;;;;;20.47;50.64;99317.81;2359932;75;51518;-77
2020/12/07 07:29:17;;;;;;;15.28;7.28;;;;;;;20.53;50.48;99320.95;2359925;75;22404;-76
2020/12/07 07:32:20;;;;;;;14.45;6.80;;;;;;;20.56;50.36;99334.48;2330079;75;50667;-77
2020/12/07 07:35:24;;;;;;;10.90;6.65;;;;;;;20.60;50.24;99337.84;2362641;75;50763;-77
2020/12/07 07:38:33;;;;;;;13.88;6.58;;;;;;;20.66;50.03;99340.94;2365950;73;50718;-76
2020/12/07 07:41:35;;;;;;;14.38;7.33;;;;;;;20.64;50.07;99332.28;2366653;75;50708;-77
2020/12/07 07:44:39;;;;;;;15.28;6.85;;;;;;;20.70;49.90;99323.82;2371678;74;50744;-78
2020/12/07 07:48:01;;;;;;;14.83;7.37;;;;;;;20.71;49.82;99320.64;2402823;74;50377;-78
2020/12/07 07:54:54;;;;;;;14.83;6.70;;;;;;;20.77;49.61;99331.80;2374539;74;22249;-76
2020/12/07 07:58:07;;;;;;;10.78;5.90;;;;;;;20.80;49.51;99321.93;2385237;74;22151;-78
2020/12/07 08:01:35;;;;;;;13.43;6.80;;;;;;;20.80;49.45;99333.50;2367983;74;22205;-77
2020/12/07 08:17:08;;;;;;;10.90;5.92;;;;;;;20.92;49.22;99343.48;2360652;75;22534;-75
2020/12/07 08:20:10;;;;;;;12.50;6.10;;;;;;;20.97;49.06;99336.36;2364734;74;51524;-76
2020/12/07 08:23:12;;;;;;;13.68;5.87;;;;;;;20.99;48.99;99345.02;2386796;74;50366;-77
2020/12/07 08:26:18;;;;;;;9.88;6.03;;;;;;;20.97;49.00;99336.36;2386346;74;50368;-77
2020/12/07 08:29:20;;;;;;;12.20;6.17;;;;;;;20.98;49.02;99347.92;2295768;76;50362;-76
2020/12/07 08:32:23;;;;;;;15.13;6.83;;;;;;;20.97;49.00;99344.42;2356530;75;50678;-76
2020/12/07 08:35:25;;;;;;;13.72;5.62;;;;;;;20.99;48.98;99358.47;2378535;74;51511;-76
2020/12/07 08:38:30;;;;;;;12.73;5.90;;;;;;;21.01;48.90;99358.22;2317960;76;50387;-77
2020/12/07 08:41:33;;;;;;;12.03;6.60;;;;;;;21.03;48.80;99366.88;2356024;75;50259;-75
2020/12/07 08:44:37;;;;;;;9.78;6.65;;;;;;;21.03;48.77;99367.69;2370902;74;50763;-77
2020/12/07 08:47:39;;;;;;;12.23;6.30;;;;;;;21.01;48.85;99373.82;2357447;74;51543;-76
2020/12/07 08:50:41;;;;;;;11.25;5.85;;;;;;;21.10;48.61;99372.98;2285849;76;50348;-76
2020/12/07 08:53:43;;;;;;;10.53;6.05;;;;;;;21.13;48.52;99366.32;2293550;77;50364;-76
2020/12/07 08:56:47;;;;;;;9.90;5.97;;;;;;;21.13;48.49;99359.06;2289248;76;50697;-77
2020/12/07 08:59:49;;;;;;;11.22;5.85;;;;;;;21.11;48.53;99347.71;2368495;74;51569;-76
2020/12/07 09:02:51;;;;;;;10.78;6.20;;;;;;;21.08;48.59;99349.00;2365392;74;50270;-75
2020/12/07 09:05:54;;;;;;;10.20;5.67;;;;;;;21.10;48.56;99352.28;2356597;74;50425;-76
2020/12/07 09:08:56;;;;;;;10.35;5.90;;;;;;;21.10;48.55;99353.63;2293344;77;50646;-77
2020/12/07 09:11:58;;;;;;;9.03;5.85;;;;;;;21.11;48.53;99363.85;2293302;77;51499;-76
2020/12/07 09:15:00;;;;;;;7.87;5.28;;;;;;;21.10;48.50;99363.03;2293518;77;50720;-76
2020/12/07 09:18:02;;;;;;;14.03;6.12;;;;;;;21.06;48.53;99373.95;2293356;77;51558;-75
2020/12/07 09:21:07;;;;;;;9.53;5.70;;;;;;;20.99;48.67;99363.00;2293380;76;51435;-77
2020/12/07 09:24:10;;;;;;;12.43;6.10;;;;;;;20.92;48.80;99364.46;2293249;76;50387;-75
2020/12/07 09:27:12;;;;;;;13.05;6.10;;;;;;;20.92;48.74;99379.25;2293402;77;50701;-76
2020/12/07 09:30:14;;;;;;;9.05;6.05;;;;;;;20.94;48.71;99385.22;2293828;77;51498;-76
2020/12/07 09:33:16;;;;;;;11.38;6.62;;;;;;;20.93;48.69;99376.84;2294086;77;51459;-77
2020/12/07 09:36:18;;;;;;;14.30;6.85;;;;;;;20.95;48.59;99381.47;2294081;77;51682;-77
2020/12/07 09:39:21;;;;;;;12.63;6.95;;;;;;;20.92;48.69;99396.73;2294117;77;50276;-77
2020/12/07 09:42:23;;;;;;;18.52;7.37;;;;;;;20.90;48.64;99390.75;2293516;76;50329;-76
2020/12/07 09:45:25;;;;;;;14.28;7.37;;;;;;;20.92;48.60;99391.34;2293409;76;50713;-78
2020/12/07 09:48:27;;;;;;;10.93;7.22;;;;;;;20.92;48.58;99394.56;2293561;77;51562;-75
2020/12/07 09:51:29;;;;;;;13.05;7.35;;;;;;;20.95;48.48;99401.64;2293203;77;52324;-75
2020/12/07 09:54:36;;;;;;;13.75;7.35;;;;;;;20.93;48.52;99390.81;2293297;77;51484;-76
2020/12/07 09:57:35;;;;;;;14.43;8.05;;;;;;;20.97;48.40;99395.52;2293245;76;22316;-76
2020/12/07 10:00:38;;;;;;;12.98;7.67;;;;;;;20.97;48.37;99400.89;2293406;76;50693;-76
2020/12/07 10:03:40;;;;;;;14.18;7.78;;;;;;;20.95;48.41;99393.57;2293374;77;51369;-76
2020/12/07 10:06:42;;;;;;;12.88;7.60;;;;;;;21.02;48.22;99396.99;2293369;76;51514;-76
2020/12/07 10:09:44;;;;;;;15.25;8.05;;;;;;;21.00;48.26;99395.05;2293298;77;51541;-76
2020/12/07 10:12:47;;;;;;;12.03;8.05;;;;;;;21.02;48.23;99387.58;2293437;76;51536;-76
2020/12/07 10:15:49;;;;;;;16.27;8.53;;;;;;;21.06;48.14;99390.62;2293436;76;51569;-75
2020/12/07 10:18:51;;;;;;;13.15;8.83;;;;;;;21.08;48.01;99383.95;2293561;77;49966;-76
2020/12/07 10:21:54;;;;;;;14.58;8.45;;;;;;;21.03;48.13;99399.97;2293410;76;50734;-76
2020/12/07 10:24:56;;;;;;;15.35;9.08;;;;;;;21.00;48.21;99404.99;2293453;77;51594;-76
2020/12/07 10:27:58;;;;;;;16.93;8.90;;;;;;;20.96;48.21;99395.73;2293500;77;50705;-76
2020/12/07 10:31:00;;;;;;;14.13;9.30;;;;;;;20.94;48.23;99404.58;2293432;76;51654;-76
2020/12/07 10:34:03;;;;;;;14.33;9.10;;;;;;;20.90;48.30;99395.31;2293345;77;50442;-76
2020/12/07 10:37:10;;;;;;;14.83;8.65;;;;;;;20.93;48.22;99400.23;2293615;76;50428;-76
2020/12/07 10:40:09;;;;;;;13.65;9.10;;;;;;;20.92;48.20;99386.50;2289939;77;23463;-77
2020/12/07 10:43:11;;;;;;;16.95;9.10;;;;;;;20.95;48.14;99388.73;2287668;76;50520;-77
2020/12/07 10:46:13;;;;;;;15.98;8.83;;;;;;;21.00;48.08;99403.12;2293976;77;50302;-76
2020/12/07 10:49:16;;;;;;;12.45;8.70;;;;;;;20.97;48.10;99386.63;2292143;77;50727;-76
2020/12/07 10:52:18;;;;;;;13.48;8.90;;;;;;;20.97;48.08;99387.45;2333498;76;50359;-77
2020/12/07 10:55:20;;;;;;;12.28;8.28;;;;;;;20.98;48.09;99392.30;2398298;74;50272;-77
2020/12/07 10:58:22;;;;;;;13.35;8.65;;;;;;;20.99;48.04;99396.61;2278618;77;50378;-75
2020/12/07 11:01:25;;;;;;;19.25;8.93;;;;;;;21.00;48.58;99403.12;2341618;74;50726;-76
2020/12/07 11:04:27;;;;;;;17.15;8.60;;;;;;;20.98;49.59;99398.48;2342595;75;50698;-78
2020/12/07 11:07:30;;;;;;;14.63;8.75;;;;;;;21.03;49.91;99394.59;2374244;75;51542;-77
2020/12/07 11:10:32;;;;;;;15.18;8.35;;;;;;;21.07;50.28;99402.50;2374793;75;50765;-76
2020/12/07 11:13:35;;;;;;;15.93;8.90;;;;;;;21.05;50.35;99403.25;2355581;73;51444;-77
2020/12/07 11:16:37;;;;;;;16.48;8.25;;;;;;;21.00;50.24;99407.69;2366871;73;50315;-76
2020/12/07 11:19:43;;;;;;;12.53;8.28;;;;;;;20.98;50.20;99413.28;2349479;75;50715;-77
2020/12/07 11:22:43;;;;;;;15.50;9.03;;;;;;;20.98;50.30;99419.19;2375245;74;22736;-78
2020/12/07 11:25:45;;;;;;;14.30;8.70;;;;;;;20.91;50.52;99423.33;2351920;75;50386;-78
2020/12/07 11:28:48;;;;;;;16.05;8.98;;;;;;;20.88;50.67;99425.95;2341253;75;51492;-77
2020/12/07 11:31:50;;;;;;;18.65;8.95;;;;;;;20.92;50.70;99433.55;2345370;75;51615;-78
2020/12/07 11:34:52;;;;;;;13.75;7.75;;;;;;;20.91;50.78;99437.27;2369775;75;51513;-77
2020/12/07 11:38:02;;;;;;;14.23;8.53;;;;;;;20.93;50.82;99442.72;2343276;74;51486;-77
2020/12/07 11:44:10;;;;;;;18.27;8.78;;;;;;;20.96;50.77;99441.45;2362787;75;22456;-76
2020/12/07 11:47:14;;;;;;;13.58;8.18;;;;;;;20.97;50.72;99461.93;2341156;75;23791;-76
2020/12/07 11:50:16;;;;;;;14.87;8.35;;;;;;;20.98;50.66;99466.25;2340772;75;50296;-76
2020/12/07 11:53:18;;;;;;;16.05;8.35;;;;;;;20.90;50.75;99457.97;2340524;75;50704;-76
2020/12/07 11:56:32;;;;;;;16.48;8.70;;;;;;;20.88;50.76;99467.63;2341941;73;51508;-76
2020/12/07 11:59:35;;;;;;;14.05;8.70;;;;;;;20.87;50.74;99470.00;2373465;74;51578;-76
2020/12/07 12:02:37;;;;;;;15.83;8.63;;;;;;;20.82;50.75;99465.83;2325445;76;51582;-75
2020/12/07 12:05:39;;;;;;;18.05;9.13;;;;;;;20.83;50.86;99457.23;2394277;74;50542;-77
2020/12/07 12:08:41;;;;;;;18.10;8.85;;;;;;;20.85;50.88;99476.13;2383622;74;51549;-77
2020/12/07 12:11:44;;;;;;;18.80;8.10;;;;;;;20.89;50.79;99471.12;2381710;74;51543;-75
2020/12/07 12:14:46;;;;;;;12.82;8.50;;;;;;;20.91;50.82;99463.66;2325806;76;51612;-77
2020/12/07 12:17:48;;;;;;;13.88;8.50;;;;;;;20.93;50.73;99472.30;2369399;74;51543;-77
2020/12/07 12:20:50;;;;;;;16.17;8.88;;;;;;;20.99;50.61;99466.53;2337312;76;50734;-77
2020/12/07 12:23:53;;;;;;;14.10;7.83;;;;;;;20.98;50.56;99479.70;2295360;76;50257;-78
2020/12/07 12:26:55;;;;;;;13.30;8.45;;;;;;;20.99;50.54;99484.86;2373715;74;50756;-78
2020/12/07 12:29:57;;;;;;;14.85;8.90;;;;;;;20.97;50.53;99493.67;2290169;77;51531;-78
2020/12/07 12:32:59;;;;;;;16.57;8.83;;;;;;;20.95;50.58;99485.53;2277155;76;50716;-75
2020/12/07 12:36:01;;;;;;;18.37;8.65;;;;;;;20.93;50.64;99495.69;2304227;76;51504;-76
2020/12/07 12:39:04;;;;;;;12.88;8.23;;;;;;;20.91;50.64;99501.81;2369126;74;51523;-76
2020/12/07 12:42:06;;;;;;;14.33;8.33;;;;;;;20.87;50.74;99506.83;2352230;75;50287;-76
2020/12/07 12:45:08;;;;;;;13.18;8.33;;;;;;;20.87;50.73;99510.86;2352309;74;50344;-77
2020/12/07 12:48:10;;;;;;;17.80;8.55;;;;;;;20.89;50.70;99511.46;2352170;75;50701;-76
2020/12/07 12:51:12;;;;;;;12.78;9.10;;;;;;;20.95;50.59;99511.89;2380503;74;51950;-75
2020/12/07 12:54:15;;;;;;;14.63;8.58;;;;;;;20.96;50.50;99518.93;2389851;74;51541;-74
2020/12/07 12:57:17;;;;;;;11.33;7.55;;;;;;;20.97;50.51;99517.88;2316570;76;51549;-75
2020/12/07 13:00:20;;;;;;;14.33;8.28;;;;;;;20.96;50.54;99523.47;2298432;76;50678;-77
2020/12/07 13:03:22;;;;;;;11.85;7.80;;;;;;;21.01;50.40;99526.30;2341182;76;50766;-76
2020/12/07 13:06:25;;;;;;;12.75;7.53;;;;;;;21.01;50.40;99539.21;2316488;76;51559;-76
2020/12/07 13:09:27;;;;;;;12.23;7.85;;;;;;;21.03;50.45;99542.50;2385906;74;52581;-76
2020/12/07 13:12:29;;;;;;;12.10;8.48;;;;;;;21.00;50.63;99536.77;2297982;76;50736;-75
2020/12/07 13:15:32;;;;;;;12.25;7.78;;;;;;;20.99;50.69;99544.52;2340970;76;51603;-76
2020/12/07 13:18:44;;;;;;;11.78;7.90;;;;;;;21.01;50.62;99555.34;2322286;76;50668;-75
2020/12/07 13:21:42;;;;;;;13.50;8.43;;;;;;;20.91;50.87;99560.47;2285207;76;24120;-76
2020/12/07 13:24:48;;;;;;;14.58;8.35;;;;;;;20.91;50.88;99556.93;2258875;77;22321;-76
2020/12/07 13:27:51;;;;;;;12.63;7.72;;;;;;;20.94;50.82;99558.66;2274319;77;22539;-77
2020/12/07 13:30:49;;;;;;;19.48;8.33;;;;;;;20.90;50.99;99546.70;2296376;76;22306;-76
2020/12/07 13:33:51;;;;;;;12.78;7.60;;;;;;;20.90;50.96;99553.42;2294579;77;50775;-74
2020/12/07 13:36:54;;;;;;;10.60;7.47;;;;;;;20.92;50.97;99559.94;2333651;76;51357;-75
2020/12/07 13:39:56;;;;;;;11.78;7.87;;;;;;;20.94;51.04;99560.02;2328165;76;51572;-76
2020/12/07 13:42:58;;;;;;;12.00;7.10;;;;;;;20.95;50.93;99569.70;2340518;76;51370;-75
2020/12/07 13:46:00;;;;;;;13.55;8.13;;;;;;;20.91;50.99;99577.09;2314661;76;51569;-76
2020/12/07 13:49:03;;;;;;;12.45;8.00;;;;;;;20.91;51.00;99575.75;2389039;73;51570;-76
2020/12/07 13:52:10;;;;;;;10.30;7.62;;;;;;;20.87;50.97;99586.15;2371681;74;51587;-77
2020/12/07 13:55:12;;;;;;;10.93;7.55;;;;;;;20.91;50.94;99592.73;2367102;74;51577;-76
2020/12/07 13:58:14;;;;;;;10.95;7.70;;;;;;;20.89;50.95;99592.13;2368347;73;51489;-76
2020/12/07 14:01:17;;;;;;;11.28;7.22;;;;;;;20.94;50.85;99593.62;2357495;74;51507;-77
2020/12/07 14:07:26;;;;;;;17.37;9.10;;;;;;;20.96;50.80;99608.17;2386137;74;22769;-77
2020/12/07 14:10:28;;;;;;;13.90;7.83;;;;;;;20.92;50.93;99609.16;2289091;77;50677;-76
2020/12/07 14:13:31;;;;;;;12.68;8.33;;;;;;;20.96;50.79;99616.23;2373644;73;51579;-76
2020/12/07 14:16:36;;;;;;;14.75;8.18;;;;;;;20.99;50.70;99620.66;2373884;73;50347;-77
2020/12/07 14:22:56;;;;;;;11.57;7.80;;;;;;;20.94;50.65;99614.32;2373919;73;22918;-76
2020/12/07 14:29:48;;;;;;;13.50;7.90;;;;;;;20.90;50.61;99620.65;2374153;74;22802;-76
2020/12/07 14:41:55;;;;;;;14.13;8.60;;;;;;;20.94;50.46;99637.99;2340176;76;22304;-77
2020/12/07 14:44:57;;;;;;;13.62;9.18;;;;;;;20.97;50.39;99642.92;2339922;75;50445;-76
2020/12/07 14:48:06;;;;;;;11.60;7.70;;;;;;;20.99;50.36;99648.05;2339721;76;50458;-75
2020/12/07 14:51:22;;;;;;;;;;;;;;;20.97;50.38;99652.86;2342247;75;22322;-76